YRB weather

Resolute Bay Airport
Resolute Bay, Nunavut, Canada

Public forecast

Using degrees Celsius for public forecast. Weather courtesy of forecast.io.

METAR (pilot weather report)

Retrieved 2019/01/17 17:00 UTC (56 minutes ago):

CYRB 171700Z 34005KT 300V060 10SM IC FEW040 M29/M34 A3012 RMK SC2 SLP214

TAF (pilot weather forecast)

Retrieved 2019/01/17 12:39 UTC (5 hours ago):

TAF CYRB 171138Z 1712/1812 28005KT P6SM IC SKC TEMPO 1712/1721 35015G25KT 5SM IC BLSN FM172100 35015G25KT 4SM -SN BLSN BKN030 TEMPO 1721/1812 P6SM IC SCT030 RMK NXT FCST BY 171800Z